createdAt,value
2023-01-01T00:02:31.774Z,15.20
2023-01-01T00:05:39.405Z,15.20
2023-01-01T00:08:41.280Z,15.10
2023-01-01T00:11:43.431Z,15.00
2023-01-01T00:14:45.487Z,15.10
2023-01-01T00:17:47.442Z,15.10
2023-01-01T00:20:49.324Z,15.00
2023-01-01T00:23:51.071Z,15.00
2023-01-01T00:26:52.843Z,15.00
2023-01-01T00:29:54.696Z,15.00
2023-01-01T00:32:56.817Z,15.00
2023-01-01T00:36:05.364Z,14.90
2023-01-01T00:39:07.189Z,14.90
2023-01-01T00:42:08.906Z,14.90
2023-01-01T00:45:15.571Z,14.90
2023-01-01T00:48:21.373Z,14.90
2023-01-01T00:51:23.129Z,14.90
2023-01-01T00:54:25.274Z,14.90
2023-01-01T00:57:27.240Z,14.80
2023-01-01T01:00:29.086Z,14.90
2023-01-01T01:03:31.124Z,14.90
2023-01-01T01:06:33.057Z,14.80
2023-01-01T01:09:35.921Z,14.80
2023-01-01T01:12:37.909Z,14.80
2023-01-01T01:15:39.761Z,14.90
2023-01-01T01:18:42.282Z,14.80
2023-01-01T01:21:44.660Z,14.80
2023-01-01T01:24:46.879Z,14.90
2023-01-01T01:27:49.230Z,14.90
2023-01-01T01:30:51.263Z,14.90
2023-01-01T01:33:53.381Z,14.90
2023-01-01T01:36:55.775Z,14.90
2023-01-01T01:39:57.733Z,14.90
2023-01-01T01:42:59.750Z,14.80
2023-01-01T01:46:14.623Z,14.90
2023-01-01T01:49:21.751Z,14.90
2023-01-01T01:52:24.368Z,14.90
2023-01-01T01:55:32.870Z,14.90
2023-01-01T01:58:35.477Z,14.90
2023-01-01T02:01:37.560Z,14.80
2023-01-01T02:04:40.484Z,14.80
2023-01-01T02:07:43.041Z,14.80
2023-01-01T02:10:44.867Z,14.90
2023-01-01T02:13:47.011Z,14.90
2023-01-01T02:16:57.889Z,14.90
2023-01-01T02:20:10.911Z,14.90
2023-01-01T02:23:38.500Z,14.90
2023-01-01T02:27:05.142Z,14.80
2023-01-01T02:30:09.297Z,14.80
2023-01-01T02:33:19.024Z,14.80
2023-01-01T02:36:25.409Z,14.80
2023-01-01T02:39:32.222Z,14.80
2023-01-01T02:42:34.462Z,14.80
2023-01-01T02:45:36.564Z,14.80
2023-01-01T02:48:52.092Z,14.70
2023-01-01T02:52:06.030Z,14.80
2023-01-01T02:55:27.095Z,14.80
2023-01-01T02:59:19.431Z,14.80
2023-01-01T03:02:50.679Z,14.80
2023-01-01T03:06:22.944Z,14.70
2023-01-01T03:09:52.017Z,14.80
2023-01-01T03:13:11.834Z,14.70
2023-01-01T03:16:19.899Z,14.80
2023-01-01T03:19:37.532Z,14.70
2023-01-01T03:25:54.776Z,14.70
2023-01-01T03:28:59.417Z,14.70
2023-01-01T03:32:05.270Z,14.70
2023-01-01T03:35:24.182Z,14.60
2023-01-01T03:38:35.919Z,14.70
2023-01-01T03:41:49.586Z,14.70
2023-01-01T03:44:54.292Z,14.60
2023-01-01T03:47:57.152Z,14.70
2023-01-01T03:51:04.940Z,14.70
2023-01-01T03:54:30.220Z,14.70
2023-01-01T03:57:50.273Z,14.70
2023-01-01T04:01:12.083Z,14.60
2023-01-01T04:04:15.936Z,14.60
2023-01-01T04:07:17.901Z,14.60
2023-01-01T04:10:20.612Z,14.60
2023-01-01T04:13:22.893Z,14.60
2023-01-01T04:16:25.031Z,14.60
2023-01-01T04:19:26.937Z,14.60
2023-01-01T04:22:28.725Z,14.60
2023-01-01T04:25:31.118Z,14.60
2023-01-01T04:28:32.929Z,14.60
2023-01-01T04:31:35.739Z,14.50
2023-01-01T04:34:37.505Z,14.50
2023-01-01T04:37:41.247Z,14.50
2023-01-01T04:40:43.084Z,14.50
2023-01-01T04:43:51.777Z,14.50
2023-01-01T04:46:58.453Z,14.50
2023-01-01T04:50:02.396Z,14.50
2023-01-01T04:53:04.211Z,14.50
2023-01-01T04:56:20.146Z,14.50
2023-01-01T04:59:22.188Z,14.50
2023-01-01T05:02:24.623Z,14.40
2023-01-01T05:05:26.514Z,14.50
2023-01-01T05:08:30.648Z,14.40
2023-01-01T05:11:33.258Z,14.40
2023-01-01T05:14:35.389Z,14.40
2023-01-01T05:17:37.359Z,14.40
2023-01-01T05:20:39.190Z,14.40
2023-01-01T05:23:41.451Z,14.40
2023-01-01T05:26:46.347Z,14.40
2023-01-01T05:29:48.309Z,14.30
2023-01-01T05:32:50.356Z,14.30
2023-01-01T05:35:55.074Z,14.30
2023-01-01T05:38:58.068Z,14.30
2023-01-01T05:42:00.081Z,14.30
2023-01-01T05:45:02.633Z,14.30
2023-01-01T05:48:07.213Z,14.40
2023-01-01T05:51:12.595Z,14.40
2023-01-01T05:57:15.105Z,14.40
2023-01-01T06:00:17.358Z,14.30
2023-01-01T06:03:19.397Z,14.30
2023-01-01T06:06:26.801Z,14.30
2023-01-01T06:09:28.616Z,14.30
2023-01-01T06:12:30.650Z,14.40
2023-01-01T06:15:32.731Z,14.40
2023-01-01T06:18:35.476Z,14.30
2023-01-01T06:21:37.479Z,14.30
2023-01-01T06:24:39.527Z,14.30
2023-01-01T06:27:41.489Z,14.30
2023-01-01T06:30:43.523Z,14.20
2023-01-01T06:33:45.540Z,14.20
2023-01-01T06:36:47.497Z,14.20
2023-01-01T06:39:49.355Z,14.20
2023-01-01T06:42:51.106Z,14.20
2023-01-01T06:46:30.285Z,14.20
2023-01-01T06:49:32.189Z,14.20
2023-01-01T06:52:34.249Z,14.20
2023-01-01T06:55:38.207Z,14.10
2023-01-01T06:58:40.300Z,14.10
2023-01-01T07:01:44.551Z,14.10
2023-01-01T07:04:46.965Z,14.00
2023-01-01T07:07:48.726Z,13.90
2023-01-01T07:10:50.506Z,13.90
2023-01-01T07:13:52.649Z,13.90
2023-01-01T07:16:54.589Z,13.80
2023-01-01T07:19:56.565Z,13.80
2023-01-01T07:22:58.374Z,13.80
2023-01-01T07:26:00.194Z,13.80
2023-01-01T07:29:07.436Z,13.80
2023-01-01T07:32:15.903Z,13.70
2023-01-01T07:35:17.797Z,13.80
2023-01-01T07:38:19.813Z,13.70
2023-01-01T07:41:21.760Z,13.80
2023-01-01T07:44:23.504Z,13.80
2023-01-01T07:47:26.702Z,13.70
2023-01-01T07:50:31.563Z,13.80
2023-01-01T07:53:33.780Z,13.80
2023-01-01T07:56:36.473Z,13.70
2023-01-01T07:59:38.928Z,13.70
2023-01-01T08:02:43.723Z,13.70
2023-01-01T08:05:45.868Z,13.70
2023-01-01T08:08:54.660Z,13.70
2023-01-01T08:11:58.611Z,13.80
2023-01-01T08:15:00.401Z,13.70
2023-01-01T08:18:04.863Z,13.70
2023-01-01T08:21:06.716Z,13.70
2023-01-01T08:24:08.662Z,13.70
2023-01-01T08:27:13.858Z,13.60
2023-01-01T08:30:16.770Z,13.60
2023-01-01T08:33:18.719Z,13.70
2023-01-01T08:36:21.050Z,13.70
2023-01-01T08:39:22.850Z,13.60
2023-01-01T08:42:24.951Z,13.70
2023-01-01T08:45:26.977Z,13.70
2023-01-01T08:48:31.028Z,13.70
2023-01-01T08:51:33.197Z,13.70
2023-01-01T08:54:35.097Z,13.60
2023-01-01T08:57:36.914Z,13.70
2023-01-01T09:00:38.788Z,13.70
2023-01-01T09:03:40.895Z,13.70
2023-01-01T09:06:43.145Z,13.70
2023-01-01T09:09:45.361Z,13.70
2023-01-01T09:12:47.269Z,13.70
2023-01-01T09:15:49.607Z,13.60
2023-01-01T09:18:51.752Z,13.60
2023-01-01T09:21:54.033Z,13.60
2023-01-01T09:24:55.841Z,13.60
2023-01-01T09:28:02.695Z,13.70
2023-01-01T09:31:13.805Z,13.70
2023-01-01T09:34:18.104Z,13.70
2023-01-01T09:37:20.353Z,13.70
2023-01-01T09:40:38.659Z,13.80
2023-01-01T09:44:16.634Z,13.70
2023-01-01T09:47:44.329Z,13.80
2023-01-01T09:50:47.245Z,13.80
2023-01-01T09:53:53.812Z,13.90
2023-01-01T09:56:59.439Z,13.80
2023-01-01T10:00:01.491Z,13.70
2023-01-01T10:03:26.491Z,13.80
2023-01-01T10:06:34.814Z,13.80
2023-01-01T10:09:43.343Z,13.80
2023-01-01T10:13:16.778Z,13.80
2023-01-01T10:16:41.079Z,13.90
2023-01-01T10:19:50.634Z,13.90
2023-01-01T10:23:14.839Z,13.90
2023-01-01T10:26:20.223Z,13.90
2023-01-01T10:29:45.065Z,13.90
2023-01-01T10:32:49.277Z,13.90
2023-01-01T10:35:56.099Z,13.90
2023-01-01T10:38:58.161Z,13.90
2023-01-01T10:42:00.935Z,13.90
2023-01-01T10:45:05.403Z,14.00
2023-01-01T10:48:10.672Z,13.90
2023-01-01T10:51:17.496Z,14.00
2023-01-01T10:54:33.030Z,14.00
2023-01-01T10:57:38.825Z,13.90
2023-01-01T11:00:40.692Z,13.90
2023-01-01T11:04:00.448Z,14.00
2023-01-01T11:07:07.388Z,14.00
2023-01-01T11:10:20.381Z,14.00
2023-01-01T11:13:22.473Z,14.00
2023-01-01T11:16:25.144Z,14.00
2023-01-01T11:19:33.873Z,14.00
2023-01-01T11:22:42.908Z,14.00
2023-01-01T11:25:58.259Z,14.00
2023-01-01T11:29:18.902Z,14.00
2023-01-01T11:32:35.037Z,14.00
2023-01-01T11:35:50.885Z,14.00
2023-01-01T11:39:21.172Z,14.00
2023-01-01T11:42:26.253Z,14.10
2023-01-01T11:45:40.006Z,14.10
2023-01-01T11:48:43.785Z,14.10
2023-01-01T11:51:45.921Z,14.10
2023-01-01T11:54:48.563Z,14.10
2023-01-01T11:58:04.133Z,14.10
2023-01-01T12:01:27.237Z,14.10
2023-01-01T12:04:49.671Z,14.10
2023-01-01T12:07:52.442Z,14.10
2023-01-01T12:11:24.581Z,14.10
2023-01-01T12:14:42.129Z,14.10
2023-01-01T12:17:47.301Z,14.10
2023-01-01T12:21:03.772Z,14.10
2023-01-01T12:24:11.759Z,14.00
2023-01-01T12:27:51.237Z,14.10
2023-01-01T12:31:48.467Z,14.10
2023-01-01T12:35:17.312Z,14.10
2023-01-01T12:38:56.580Z,14.10
2023-01-01T12:42:11.595Z,14.10
2023-01-01T12:45:31.632Z,14.10
2023-01-01T12:48:49.027Z,14.10
2023-01-01T12:52:10.316Z,14.10
2023-01-01T12:55:54.973Z,14.10
2023-01-01T12:59:06.720Z,14.10
2023-01-01T13:02:33.229Z,14.10
2023-01-01T13:05:42.704Z,14.10
2023-01-01T13:08:47.977Z,14.10
2023-01-01T13:12:10.987Z,14.10
2023-01-01T13:15:48.639Z,14.10
2023-01-01T13:18:50.585Z,14.00
2023-01-01T13:22:18.190Z,14.10
2023-01-01T13:25:23.697Z,14.00
2023-01-01T13:28:25.499Z,14.00
2023-01-01T13:31:39.816Z,14.00
2023-01-01T13:35:00.549Z,14.00
2023-01-01T13:38:02.554Z,14.00
2023-01-01T13:41:04.383Z,14.00
2023-01-01T13:44:06.097Z,14.00
2023-01-01T13:47:13.834Z,14.10
2023-01-01T13:50:46.557Z,14.10
2023-01-01T13:54:00.245Z,14.10
2023-01-01T13:57:04.546Z,14.10
2023-01-01T14:00:21.296Z,14.10
2023-01-01T14:03:26.506Z,14.10
2023-01-01T14:06:42.144Z,14.10
2023-01-01T14:09:44.964Z,14.10
2023-01-01T14:12:47.671Z,14.10
2023-01-01T14:16:00.411Z,14.00
2023-01-01T14:19:03.532Z,14.10
2023-01-01T14:22:10.502Z,14.10
2023-01-01T14:25:29.439Z,14.00
2023-01-01T14:28:33.344Z,14.00
2023-01-01T14:31:41.545Z,14.00
2023-01-01T14:34:44.776Z,14.00
2023-01-01T14:37:46.583Z,14.00
2023-01-01T14:40:48.473Z,14.00
2023-01-01T14:43:53.627Z,14.00
2023-01-01T14:46:56.614Z,13.90
2023-01-01T14:50:22.984Z,13.80
2023-01-01T14:53:33.331Z,13.80
2023-01-01T14:56:37.747Z,13.80
2023-01-01T14:59:49.350Z,13.70
2023-01-01T15:02:51.548Z,13.70
2023-01-01T15:06:02.285Z,13.70
2023-01-01T15:09:04.164Z,13.60
2023-01-01T15:12:06.114Z,13.60
2023-01-01T15:15:33.901Z,13.50
2023-01-01T15:18:41.189Z,13.50
2023-01-01T15:21:43.163Z,13.50
2023-01-01T15:24:45.592Z,13.50
2023-01-01T15:27:55.290Z,13.40
2023-01-01T15:30:57.758Z,13.30
2023-01-01T15:33:59.693Z,13.40
2023-01-01T15:37:14.622Z,13.40
2023-01-01T15:40:36.726Z,13.30
2023-01-01T15:43:38.630Z,13.20
2023-01-01T15:46:47.347Z,13.10
2023-01-01T15:49:49.268Z,13.10
2023-01-01T15:53:08.837Z,13.10
2023-01-01T15:56:13.396Z,13.10
2023-01-01T15:59:31.777Z,12.90
2023-01-01T16:02:36.667Z,12.90
2023-01-01T16:05:47.884Z,12.90
2023-01-01T16:08:50.350Z,12.90
2023-01-01T16:11:57.369Z,12.90
2023-01-01T16:14:59.125Z,12.90
2023-01-01T16:18:00.995Z,12.90
2023-01-01T16:21:04.535Z,12.90
2023-01-01T16:24:10.596Z,12.80
2023-01-01T16:27:13.066Z,12.80
2023-01-01T16:30:15.982Z,12.70
2023-01-01T16:33:20.261Z,12.70
2023-01-01T16:36:23.059Z,12.70
2023-01-01T16:39:25.027Z,12.70
2023-01-01T16:42:26.820Z,12.70
2023-01-01T16:45:28.718Z,12.70
2023-01-01T16:48:30.504Z,12.70
2023-01-01T16:51:33.852Z,12.70
2023-01-01T16:54:36.161Z,12.70
2023-01-01T16:57:37.923Z,12.60
2023-01-01T17:00:39.847Z,12.70
2023-01-01T17:03:41.822Z,12.60
2023-01-01T17:06:44.040Z,12.60
2023-01-01T17:09:46.382Z,12.60
2023-01-01T17:12:48.285Z,12.50
2023-01-01T17:15:58.386Z,12.50
2023-01-01T17:19:17.031Z,12.50
2023-01-01T17:22:21.226Z,12.50
2023-01-01T17:25:22.909Z,12.60
2023-01-01T17:28:24.829Z,12.60
2023-01-01T17:31:28.662Z,12.50
2023-01-01T17:34:30.734Z,12.50
2023-01-01T17:37:35.980Z,12.60
2023-01-01T17:40:37.750Z,12.60
2023-01-01T17:43:42.373Z,12.60
2023-01-01T17:46:44.751Z,12.50
2023-01-01T17:49:48.599Z,12.60
2023-01-01T17:52:52.395Z,12.50
2023-01-01T17:55:54.329Z,12.40
2023-01-01T17:58:56.073Z,12.40
2023-01-01T18:01:58.831Z,12.40
2023-01-01T18:05:00.634Z,12.40
2023-01-01T18:08:02.413Z,12.40
2023-01-01T18:11:05.232Z,12.40
2023-01-01T18:14:07.211Z,12.40
2023-01-01T18:17:09.138Z,12.40
2023-01-01T18:20:11.353Z,12.50
2023-01-01T18:23:13.340Z,12.50
2023-01-01T18:26:15.820Z,12.50
2023-01-01T18:29:17.789Z,12.50
2023-01-01T18:32:19.565Z,12.40
2023-01-01T18:35:21.285Z,12.40
2023-01-01T18:38:23.566Z,12.50
2023-01-01T18:41:43.392Z,12.40
2023-01-01T18:44:45.378Z,12.50
2023-01-01T18:47:47.498Z,12.50
2023-01-01T18:50:49.579Z,12.50
2023-01-01T18:53:59.178Z,12.50
2023-01-01T18:57:29.179Z,12.50
2023-01-01T19:00:32.974Z,12.50
2023-01-01T19:03:40.988Z,12.50
2023-01-01T19:06:43.355Z,12.50
2023-01-01T19:09:45.827Z,12.40
2023-01-01T19:12:49.070Z,12.40
2023-01-01T19:16:10.943Z,12.40
2023-01-01T19:19:34.824Z,12.40
2023-01-01T19:22:36.485Z,12.40
2023-01-01T19:25:40.876Z,12.40
2023-01-01T19:28:52.579Z,12.40
2023-01-01T19:31:56.989Z,12.40
2023-01-01T19:34:58.796Z,12.40
2023-01-01T19:38:00.590Z,12.40
2023-01-01T19:41:02.664Z,12.30
2023-01-01T19:44:09.961Z,12.30
2023-01-01T19:47:12.284Z,12.40
2023-01-01T19:50:14.580Z,12.40
2023-01-01T19:53:16.544Z,12.40
2023-01-01T19:56:18.756Z,12.40
2023-01-01T19:59:21.056Z,12.40
2023-01-01T20:05:44.581Z,12.40
2023-01-01T20:08:47.208Z,12.40
2023-01-01T20:11:51.268Z,12.40
2023-01-01T20:14:53.858Z,12.40
2023-01-01T20:17:55.697Z,12.30
2023-01-01T20:21:36.079Z,12.40
2023-01-01T20:24:47.142Z,12.40
2023-01-01T20:28:07.445Z,12.30
2023-01-01T20:31:09.326Z,12.40
2023-01-01T20:34:11.588Z,12.40
2023-01-01T20:37:32.322Z,12.30
2023-01-01T20:40:34.329Z,12.40
2023-01-01T20:43:36.185Z,12.40
2023-01-01T20:46:38.483Z,12.50
2023-01-01T20:49:41.973Z,12.50
2023-01-01T20:52:43.906Z,12.60
2023-01-01T20:55:45.797Z,12.60
2023-01-01T20:58:50.192Z,12.60
2023-01-01T21:01:55.276Z,12.70
2023-01-01T21:04:57.593Z,12.70
2023-01-01T21:08:00.119Z,12.70
2023-01-01T21:11:01.954Z,12.80
2023-01-01T21:14:04.031Z,12.80
2023-01-01T21:17:22.255Z,12.80
2023-01-01T21:20:29.385Z,12.90
2023-01-01T21:23:31.588Z,12.90
2023-01-01T21:26:36.778Z,13.00
2023-01-01T21:29:51.555Z,13.00
2023-01-01T21:32:53.339Z,13.00
2023-01-01T21:35:55.756Z,13.00
2023-01-01T21:38:58.763Z,13.10
2023-01-01T21:42:24.547Z,13.10
2023-01-01T21:45:32.814Z,13.20
2023-01-01T21:48:46.631Z,13.20
2023-01-01T21:52:21.631Z,13.30
2023-01-01T21:55:47.086Z,13.40
2023-01-01T21:59:07.256Z,13.40
2023-01-01T22:02:09.166Z,13.50
2023-01-01T22:05:42.488Z,13.60
2023-01-01T22:08:46.131Z,13.70
2023-01-01T22:12:11.921Z,13.60
2023-01-01T22:15:25.565Z,13.70
2023-01-01T22:18:28.448Z,13.70
2023-01-01T22:21:31.115Z,13.80
2023-01-01T22:24:35.074Z,13.80
2023-01-01T22:27:37.547Z,13.80
2023-01-01T22:30:43.949Z,13.80
2023-01-01T22:33:51.295Z,13.80
2023-01-01T22:36:53.979Z,13.80
2023-01-01T22:39:55.917Z,13.80
2023-01-01T22:43:02.441Z,13.90
2023-01-01T22:46:19.463Z,13.90
2023-01-01T22:49:43.640Z,13.90
2023-01-01T22:52:45.761Z,13.90
2023-01-01T22:55:47.530Z,13.90
2023-01-01T22:58:54.782Z,14.00
2023-01-01T23:02:00.347Z,14.00
2023-01-01T23:05:02.346Z,13.90
2023-01-01T23:08:04.405Z,14.00
2023-01-01T23:11:07.074Z,14.00
2023-01-01T23:14:27.375Z,14.00
2023-01-01T23:17:29.181Z,14.00
2023-01-01T23:20:31.521Z,14.00
2023-01-01T23:23:33.916Z,14.10
2023-01-01T23:26:35.934Z,14.00
2023-01-01T23:29:37.852Z,14.00
2023-01-01T23:32:40.777Z,14.00
2023-01-01T23:35:42.981Z,14.10
2023-01-01T23:38:44.888Z,14.10
2023-01-01T23:41:46.818Z,14.10
2023-01-01T23:44:48.578Z,14.20
2023-01-01T23:47:50.451Z,14.20
2023-01-01T23:50:52.182Z,14.20
2023-01-01T23:53:54.264Z,14.20
2023-01-01T23:56:56.013Z,14.20
2023-01-01T23:59:57.877Z,14.20
